VLG69DR LEBL-LIRF
Flight info
| Callsign | VLG69DR |
|---|---|
| Flight time | 1h 22m |
| Altitude | 38000 |
| Route | DIPES N725 OSPOK DCT NOLVI DCT ORKUM DCT ELSAG DCT ALG DCT ROMPO DCT RUXOP DCT BATOX DCT TINTO L5 VALMA |
| Aircraft | A20N/M-SDE2E3FGHIRWXY/LB1 |
Departure
| Time | 2026-05-06 18:09 |
|---|---|
| Airport | Josep Tarradellas Barcelona-El Prat Airport (LEBL) |
Arrival
| Time | 2026-05-06 19:31 |
|---|---|
| Airport | Rome–Fiumicino Leonardo da Vinci International Airport (LIRF) |
| Time | Latitude | Longitude | Altitude | Speed | Heading |
|---|---|---|---|---|---|
| 2026-05-06 17:22 | 41.29082 | 2.07744 | 2 ft | 0 kts | 155° |
| 2026-05-06 17:53 | 41.29087 | 2.07741 | 2 ft | 2 kts | 153° |
| 2026-05-06 17:53 | 41.29102 | 2.07731 | 4 ft | 2 kts | 152° |
| 2026-05-06 17:54 | 41.29116 | 2.07720 | 3 ft | 2 kts | 147° |
| 2026-05-06 17:54 | 41.29129 | 2.07708 | 3 ft | 2 kts | 138° |
| 2026-05-06 17:54 | 41.29141 | 2.07691 | 2 ft | 2 kts | 115° |
| 2026-05-06 17:54 | 41.29144 | 2.07670 | 2 ft | 2 kts | 75° |
| 2026-05-06 17:55 | 41.29140 | 2.07657 | 2 ft | 1 kts | 62° |
| 2026-05-06 17:55 | 41.29140 | 2.07656 | 2 ft | 0 kts | 62° |
| 2026-05-06 17:57 | 41.29145 | 2.07670 | 2 ft | 4 kts | 62° |
| 2026-05-06 17:57 | 41.29159 | 2.07707 | 2 ft | 5 kts | 66° |
| 2026-05-06 17:57 | 41.29177 | 2.07764 | 4 ft | 8 kts | 65° |
| 2026-05-06 17:58 | 41.29203 | 2.07839 | 2 ft | 9 kts | 65° |
| 2026-05-06 17:58 | 41.29228 | 2.07910 | 2 ft | 8 kts | 65° |
| 2026-05-06 17:58 | 41.29249 | 2.07970 | 2 ft | 7 kts | 66° |
| 2026-05-06 17:58 | 41.29269 | 2.08031 | 3 ft | 8 kts | 65° |
| 2026-05-06 17:59 | 41.29295 | 2.08103 | 2 ft | 9 kts | 65° |
| 2026-05-06 17:59 | 41.29323 | 2.08187 | 4 ft | 11 kts | 66° |
| 2026-05-06 17:59 | 41.29355 | 2.08279 | 4 ft | 11 kts | 65° |
| 2026-05-06 17:59 | 41.29368 | 2.08366 | 2 ft | 9 kts | 110° |
| 2026-05-06 18:00 | 41.29324 | 2.08407 | 2 ft | 7 kts | 156° |
| 2026-05-06 18:00 | 41.29283 | 2.08433 | 2 ft | 6 kts | 155° |
| 2026-05-06 18:00 | 41.29243 | 2.08457 | 2 ft | 7 kts | 155° |
| 2026-05-06 18:00 | 41.29192 | 2.08488 | 3 ft | 9 kts | 156° |
| 2026-05-06 18:01 | 41.29129 | 2.08525 | 5 ft | 10 kts | 156° |
| 2026-05-06 18:01 | 41.29071 | 2.08559 | 5 ft | 8 kts | 156° |
| 2026-05-06 18:01 | 41.29023 | 2.08587 | 7 ft | 8 kts | 156° |
| 2026-05-06 18:01 | 41.28972 | 2.08619 | 9 ft | 9 kts | 154° |
| 2026-05-06 18:02 | 41.28902 | 2.08662 | 5 ft | 13 kts | 155° |
| 2026-05-06 18:02 | 41.28870 | 2.08755 | 3 ft | 12 kts | 68° |
| 2026-05-06 18:02 | 41.28904 | 2.08849 | 3 ft | 11 kts | 66° |
| 2026-05-06 18:02 | 41.28933 | 2.08935 | 5 ft | 10 kts | 66° |
| 2026-05-06 18:03 | 41.28962 | 2.09021 | 3 ft | 10 kts | 65° |
| 2026-05-06 18:03 | 41.28994 | 2.09114 | 3 ft | 12 kts | 65° |
| 2026-05-06 18:03 | 41.29031 | 2.09223 | 3 ft | 14 kts | 65° |
| 2026-05-06 18:03 | 41.29075 | 2.09348 | 3 ft | 15 kts | 65° |
| 2026-05-06 18:04 | 41.29121 | 2.09485 | 4 ft | 18 kts | 66° |
| 2026-05-06 18:04 | 41.29169 | 2.09622 | 4 ft | 15 kts | 67° |
| 2026-05-06 18:04 | 41.29212 | 2.09749 | 4 ft | 13 kts | 66° |
| 2026-05-06 18:04 | 41.29253 | 2.09868 | 3 ft | 14 kts | 63° |
| 2026-05-06 18:05 | 41.29285 | 2.09966 | 3 ft | 12 kts | 79° |
| 2026-05-06 18:05 | 41.29264 | 2.10060 | 3 ft | 5 kts | 111° |
| 2026-05-06 18:05 | 41.29261 | 2.10069 | 3 ft | 0 kts | 111° |
| 2026-05-06 18:06 | 41.29258 | 2.10081 | 3 ft | 3 kts | 111° |
| 2026-05-06 18:07 | 41.29248 | 2.10115 | 5 ft | 5 kts | 111° |
| 2026-05-06 18:07 | 41.29237 | 2.10169 | 4 ft | 7 kts | 94° |
| 2026-05-06 18:07 | 41.29253 | 2.10243 | 5 ft | 10 kts | 75° |
| 2026-05-06 18:07 | 41.29213 | 2.10293 | 5 ft | 9 kts | 201° |
| 2026-05-06 18:08 | 41.29201 | 2.10270 | 6 ft | 0 kts | 245° |
| 2026-05-06 18:08 | 41.29191 | 2.10242 | 5 ft | 16 kts | 244° |
| 2026-05-06 18:08 | 41.29014 | 2.09743 | 7 ft | 102 kts | 245° |
| 2026-05-06 18:08 | 41.28620 | 2.08592 | 60 ft | 162 kts | 243° |
| 2026-05-06 18:09 | 41.28043 | 2.07285 | 841 ft | 164 kts | 230° |
| 2026-05-06 18:09 | 41.27168 | 2.06358 | 1837 ft | 162 kts | 199° |
| 2026-05-06 18:09 | 41.25982 | 2.06269 | 2394 ft | 185 kts | 175° |
| 2026-05-06 18:09 | 41.24622 | 2.06343 | 2852 ft | 208 kts | 184° |
| 2026-05-06 18:10 | 41.23131 | 2.06231 | 3449 ft | 222 kts | 188° |
| 2026-05-06 18:10 | 41.21585 | 2.05998 | 4353 ft | 225 kts | 191° |
| 2026-05-06 18:10 | 41.20019 | 2.05648 | 5199 ft | 230 kts | 194° |
| 2026-05-06 18:10 | 41.18439 | 2.05183 | 5870 ft | 234 kts | 197° |
| 2026-05-06 18:11 | 41.16842 | 2.04592 | 6617 ft | 237 kts | 200° |
| 2026-05-06 18:11 | 41.15803 | 2.04140 | 7259 ft | 235 kts | 202° |
| 2026-05-06 18:11 | 41.13725 | 2.03219 | 8304 ft | 248 kts | 190° |
| 2026-05-06 18:11 | 41.11934 | 2.03221 | 8950 ft | 262 kts | 178° |
| 2026-05-06 18:12 | 41.10724 | 2.03371 | 9561 ft | 263 kts | 176° |
| 2026-05-06 18:12 | 41.08293 | 2.03915 | 10483 ft | 280 kts | 160° |
| 2026-05-06 18:12 | 41.06602 | 2.05387 | 10814 ft | 306 kts | 134° |
| 2026-05-06 18:12 | 41.05727 | 2.06961 | 11007 ft | 323 kts | 118° |
| 2026-05-06 18:13 | 41.05016 | 2.10929 | 11406 ft | 351 kts | 87° |
| 2026-05-06 18:13 | 41.05203 | 2.13079 | 11845 ft | 355 kts | 79° |
| 2026-05-06 18:13 | 41.05647 | 2.16317 | 12649 ft | 360 kts | 79° |
| 2026-05-06 18:13 | 41.05998 | 2.19620 | 13442 ft | 364 kts | 83° |
| 2026-05-06 18:14 | 41.06201 | 2.22999 | 14151 ft | 370 kts | 86° |
| 2026-05-06 18:14 | 41.06295 | 2.26438 | 14787 ft | 377 kts | 88° |
| 2026-05-06 18:14 | 41.06331 | 2.29948 | 15429 ft | 383 kts | 89° |
| 2026-05-06 18:14 | 41.06346 | 2.33472 | 16064 ft | 388 kts | 90° |
| 2026-05-06 18:15 | 41.06355 | 2.37097 | 16685 ft | 395 kts | 90° |
| 2026-05-06 18:15 | 41.06366 | 2.40777 | 17321 ft | 401 kts | 90° |
| 2026-05-06 18:15 | 41.06378 | 2.44450 | 17911 ft | 407 kts | 90° |
| 2026-05-06 18:15 | 41.06391 | 2.48241 | 18478 ft | 412 kts | 90° |
| 2026-05-06 18:16 | 41.06404 | 2.52064 | 19035 ft | 416 kts | 90° |
| 2026-05-06 18:16 | 41.06417 | 2.55944 | 19595 ft | 421 kts | 91° |
| 2026-05-06 18:16 | 41.06428 | 2.59798 | 20148 ft | 425 kts | 91° |
| 2026-05-06 18:16 | 41.06439 | 2.63738 | 20697 ft | 430 kts | 91° |
| 2026-05-06 18:17 | 41.06448 | 2.67733 | 21247 ft | 434 kts | 91° |
| 2026-05-06 18:17 | 41.06455 | 2.71765 | 21790 ft | 438 kts | 91° |
| 2026-05-06 18:17 | 41.06461 | 2.75816 | 22326 ft | 443 kts | 92° |
| 2026-05-06 18:17 | 41.06466 | 2.79929 | 22870 ft | 447 kts | 92° |
| 2026-05-06 18:18 | 41.06470 | 2.84058 | 23399 ft | 451 kts | 92° |
| 2026-05-06 18:18 | 41.06472 | 2.88200 | 23849 ft | 455 kts | 92° |
| 2026-05-06 18:18 | 41.06472 | 2.92405 | 24284 ft | 459 kts | 92° |
| 2026-05-06 18:18 | 41.06471 | 2.96665 | 24725 ft | 462 kts | 92° |
| 2026-05-06 18:19 | 41.06469 | 3.00950 | 25127 ft | 466 kts | 92° |
| 2026-05-06 18:19 | 41.06464 | 3.05274 | 25542 ft | 470 kts | 92° |
| 2026-05-06 18:19 | 41.06458 | 3.09571 | 25938 ft | 474 kts | 93° |
| 2026-05-06 18:19 | 41.06451 | 3.13967 | 26334 ft | 477 kts | 93° |
| 2026-05-06 18:20 | 41.06441 | 3.18391 | 26723 ft | 481 kts | 93° |
| 2026-05-06 18:20 | 41.06430 | 3.22796 | 27100 ft | 485 kts | 93° |
| 2026-05-06 18:20 | 41.06417 | 3.27288 | 27475 ft | 488 kts | 93° |
| 2026-05-06 18:20 | 41.06403 | 3.31809 | 27831 ft | 491 kts | 93° |
| 2026-05-06 18:21 | 41.06386 | 3.36344 | 28188 ft | 495 kts | 93° |
| 2026-05-06 18:21 | 41.06367 | 3.40925 | 28524 ft | 498 kts | 94° |
| 2026-05-06 18:21 | 41.06347 | 3.45541 | 28862 ft | 501 kts | 94° |
| 2026-05-06 18:21 | 41.06323 | 3.50165 | 29183 ft | 504 kts | 95° |
| 2026-05-06 18:22 | 41.06056 | 3.54792 | 29500 ft | 502 kts | 103° |
| 2026-05-06 18:22 | 41.05378 | 3.59265 | 29809 ft | 500 kts | 109° |
| 2026-05-06 18:22 | 41.04560 | 3.63758 | 30122 ft | 503 kts | 108° |
| 2026-05-06 18:22 | 41.03749 | 3.68286 | 30422 ft | 505 kts | 108° |
| 2026-05-06 18:23 | 41.02937 | 3.72834 | 30723 ft | 507 kts | 108° |
| 2026-05-06 18:23 | 41.02122 | 3.77394 | 31021 ft | 509 kts | 108° |
| 2026-05-06 18:23 | 41.01312 | 3.81907 | 31388 ft | 509 kts | 108° |
| 2026-05-06 18:23 | 41.00490 | 3.86470 | 31779 ft | 508 kts | 108° |
| 2026-05-06 18:24 | 40.99667 | 3.91025 | 32168 ft | 507 kts | 108° |
| 2026-05-06 18:24 | 40.98843 | 3.95574 | 32563 ft | 507 kts | 109° |
| 2026-05-06 18:24 | 40.98018 | 4.00118 | 32917 ft | 506 kts | 109° |
| 2026-05-06 18:24 | 40.97203 | 4.04589 | 33268 ft | 505 kts | 109° |
| 2026-05-06 18:25 | 40.96377 | 4.09112 | 33617 ft | 505 kts | 109° |
| 2026-05-06 18:25 | 40.95547 | 4.13646 | 33955 ft | 504 kts | 109° |
| 2026-05-06 18:25 | 40.94728 | 4.18111 | 34243 ft | 503 kts | 109° |
| 2026-05-06 18:25 | 40.93902 | 4.22604 | 34549 ft | 502 kts | 109° |
| 2026-05-06 18:26 | 40.93075 | 4.27092 | 34835 ft | 501 kts | 109° |
| 2026-05-06 18:26 | 40.92246 | 4.31574 | 35114 ft | 500 kts | 109° |
| 2026-05-06 18:26 | 40.91415 | 4.36061 | 35388 ft | 499 kts | 109° |
| 2026-05-06 18:26 | 40.90588 | 4.40512 | 35644 ft | 499 kts | 109° |
| 2026-05-06 18:27 | 40.89760 | 4.44961 | 35905 ft | 498 kts | 109° |
| 2026-05-06 18:27 | 40.88932 | 4.49402 | 36154 ft | 497 kts | 109° |
| 2026-05-06 18:27 | 40.88112 | 4.53787 | 36396 ft | 496 kts | 109° |
| 2026-05-06 18:27 | 40.87281 | 4.58221 | 36619 ft | 496 kts | 109° |
| 2026-05-06 18:28 | 40.86451 | 4.62640 | 36851 ft | 495 kts | 109° |
| 2026-05-06 18:28 | 40.85680 | 4.67074 | 37068 ft | 497 kts | 104° |
| 2026-05-06 18:28 | 40.85227 | 4.71624 | 37279 ft | 498 kts | 101° |
| 2026-05-06 18:28 | 40.84817 | 4.76171 | 37481 ft | 498 kts | 101° |
| 2026-05-06 18:29 | 40.84400 | 4.80720 | 37680 ft | 497 kts | 101° |
| 2026-05-06 18:29 | 40.83985 | 4.85201 | 37872 ft | 497 kts | 101° |
| 2026-05-06 18:29 | 40.83139 | 4.94260 | 37955 ft | 496 kts | 101° |
| 2026-05-06 18:30 | 40.82287 | 5.03296 | 37957 ft | 496 kts | 101° |
| 2026-05-06 18:30 | 40.81433 | 5.12271 | 37959 ft | 495 kts | 101° |
| 2026-05-06 18:31 | 40.80566 | 5.21312 | 37958 ft | 495 kts | 101° |
| 2026-05-06 18:31 | 40.79694 | 5.30334 | 37958 ft | 495 kts | 101° |
| 2026-05-06 18:32 | 40.78813 | 5.39383 | 37956 ft | 495 kts | 101° |
| 2026-05-06 18:32 | 40.77931 | 5.48357 | 37953 ft | 495 kts | 101° |
| 2026-05-06 18:33 | 40.77036 | 5.57384 | 37957 ft | 495 kts | 101° |
| 2026-05-06 18:33 | 40.76141 | 5.66346 | 37963 ft | 495 kts | 101° |
| 2026-05-06 18:34 | 40.75232 | 5.75374 | 37959 ft | 495 kts | 101° |
| 2026-05-06 18:34 | 40.74324 | 5.84324 | 37961 ft | 495 kts | 101° |
| 2026-05-06 18:35 | 40.73404 | 5.93321 | 37964 ft | 495 kts | 102° |
| 2026-05-06 18:35 | 40.72475 | 6.02319 | 37971 ft | 495 kts | 102° |
| 2026-05-06 18:36 | 40.71537 | 6.11328 | 37963 ft | 495 kts | 102° |
| 2026-05-06 18:36 | 40.70595 | 6.20320 | 37964 ft | 495 kts | 102° |
| 2026-05-06 18:37 | 40.69651 | 6.29258 | 37961 ft | 494 kts | 102° |
| 2026-05-06 18:37 | 40.68696 | 6.38223 | 37965 ft | 494 kts | 102° |
| 2026-05-06 18:38 | 40.67734 | 6.47188 | 37968 ft | 494 kts | 102° |
| 2026-05-06 18:38 | 40.66766 | 6.56152 | 37973 ft | 493 kts | 102° |
| 2026-05-06 18:39 | 40.65798 | 6.65043 | 37969 ft | 493 kts | 102° |
| 2026-05-06 18:40 | 40.64325 | 6.78446 | 37972 ft | 492 kts | 102° |
| 2026-05-06 18:40 | 40.63336 | 6.87361 | 37971 ft | 491 kts | 102° |
| 2026-05-06 18:41 | 40.62343 | 6.96254 | 37962 ft | 490 kts | 102° |
| 2026-05-06 18:41 | 40.61348 | 7.05098 | 37961 ft | 490 kts | 102° |
| 2026-05-06 18:42 | 40.60344 | 7.13963 | 37959 ft | 489 kts | 102° |
| 2026-05-06 18:42 | 40.59331 | 7.22834 | 37958 ft | 488 kts | 102° |
| 2026-05-06 18:43 | 40.58323 | 7.31612 | 37959 ft | 488 kts | 102° |
| 2026-05-06 18:43 | 40.57301 | 7.40450 | 37958 ft | 487 kts | 102° |
| 2026-05-06 18:44 | 40.56598 | 7.49341 | 37951 ft | 491 kts | 91° |
| 2026-05-06 18:44 | 40.57255 | 7.58247 | 37951 ft | 493 kts | 85° |
| 2026-05-06 18:45 | 40.58041 | 7.67224 | 37956 ft | 492 kts | 86° |
| 2026-05-06 18:45 | 40.58808 | 7.76187 | 37951 ft | 492 kts | 86° |
| 2026-05-06 18:46 | 40.59567 | 7.85153 | 37955 ft | 492 kts | 86° |
| 2026-05-06 18:46 | 40.60316 | 7.94061 | 37957 ft | 492 kts | 86° |
| 2026-05-06 18:47 | 40.61063 | 8.03032 | 37962 ft | 492 kts | 86° |
| 2026-05-06 18:47 | 40.61801 | 8.11952 | 37963 ft | 492 kts | 86° |
| 2026-05-06 18:48 | 40.62562 | 8.20927 | 37959 ft | 493 kts | 83° |
| 2026-05-06 18:48 | 40.64462 | 8.29617 | 37965 ft | 497 kts | 67° |
| 2026-05-06 18:49 | 40.67139 | 8.38017 | 37965 ft | 496 kts | 68° |
| 2026-05-06 18:49 | 40.69773 | 8.46386 | 37960 ft | 496 kts | 68° |
| 2026-05-06 18:50 | 40.72416 | 8.54810 | 37964 ft | 496 kts | 68° |
| 2026-05-06 18:50 | 40.75035 | 8.63175 | 37965 ft | 496 kts | 68° |
| 2026-05-06 18:51 | 40.77665 | 8.71599 | 37954 ft | 495 kts | 68° |
| 2026-05-06 18:51 | 40.80268 | 8.79968 | 37953 ft | 494 kts | 68° |
| 2026-05-06 18:52 | 40.82879 | 8.88382 | 37951 ft | 494 kts | 68° |
| 2026-05-06 18:52 | 40.85480 | 8.96795 | 37950 ft | 494 kts | 68° |
| 2026-05-06 18:53 | 40.88070 | 9.05197 | 37954 ft | 494 kts | 68° |
| 2026-05-06 18:53 | 40.90642 | 9.13567 | 37956 ft | 493 kts | 69° |
| 2026-05-06 18:54 | 40.93225 | 9.22001 | 37958 ft | 493 kts | 69° |
| 2026-05-06 18:54 | 40.95796 | 9.30421 | 37965 ft | 493 kts | 69° |
| 2026-05-06 18:55 | 40.98344 | 9.38793 | 37960 ft | 493 kts | 69° |
| 2026-05-06 18:55 | 41.00905 | 9.47229 | 37958 ft | 493 kts | 69° |
| 2026-05-06 18:56 | 41.03459 | 9.55674 | 37962 ft | 493 kts | 69° |
| 2026-05-06 18:56 | 41.06006 | 9.64122 | 37959 ft | 494 kts | 69° |
| 2026-05-06 18:57 | 41.08532 | 9.72529 | 37958 ft | 494 kts | 69° |
| 2026-05-06 18:57 | 41.11073 | 9.81022 | 37956 ft | 494 kts | 69° |
| 2026-05-06 18:58 | 41.13577 | 9.89529 | 37958 ft | 495 kts | 70° |
| 2026-05-06 18:58 | 41.16061 | 9.97994 | 37959 ft | 495 kts | 70° |
| 2026-05-06 18:59 | 41.18574 | 10.06527 | 37465 ft | 497 kts | 70° |
| 2026-05-06 18:59 | 41.19415 | 10.09352 | 37052 ft | 497 kts | 70° |
| 2026-05-06 18:59 | 41.20694 | 10.13652 | 36350 ft | 498 kts | 70° |
| 2026-05-06 18:59 | 41.21966 | 10.17937 | 35576 ft | 499 kts | 70° |
| 2026-05-06 19:00 | 41.23240 | 10.22238 | 34821 ft | 501 kts | 71° |
| 2026-05-06 19:00 | 41.24518 | 10.26560 | 34073 ft | 502 kts | 71° |
| 2026-05-06 19:00 | 41.25795 | 10.30888 | 33240 ft | 503 kts | 71° |
| 2026-05-06 19:00 | 41.27072 | 10.35227 | 32422 ft | 504 kts | 71° |
| 2026-05-06 19:01 | 41.28350 | 10.39580 | 31620 ft | 504 kts | 71° |
| 2026-05-06 19:01 | 41.29605 | 10.43863 | 30866 ft | 504 kts | 70° |
| 2026-05-06 19:01 | 41.30882 | 10.48222 | 30211 ft | 502 kts | 70° |
| 2026-05-06 19:01 | 41.32142 | 10.52534 | 29492 ft | 499 kts | 70° |
| 2026-05-06 19:02 | 41.33396 | 10.56831 | 28767 ft | 496 kts | 70° |
| 2026-05-06 19:02 | 41.34634 | 10.61081 | 28057 ft | 492 kts | 70° |
| 2026-05-06 19:02 | 41.35857 | 10.65288 | 27357 ft | 489 kts | 70° |
| 2026-05-06 19:02 | 41.37083 | 10.69511 | 26621 ft | 487 kts | 70° |
| 2026-05-06 19:03 | 41.38299 | 10.73710 | 25877 ft | 485 kts | 70° |
| 2026-05-06 19:03 | 41.39512 | 10.77904 | 25129 ft | 483 kts | 70° |
| 2026-05-06 19:03 | 41.40717 | 10.82075 | 24403 ft | 481 kts | 70° |
| 2026-05-06 19:03 | 41.41915 | 10.86231 | 23692 ft | 479 kts | 70° |
| 2026-05-06 19:04 | 41.43108 | 10.90372 | 22894 ft | 475 kts | 70° |
| 2026-05-06 19:04 | 41.44286 | 10.94470 | 22089 ft | 472 kts | 70° |
| 2026-05-06 19:04 | 41.45438 | 10.98480 | 21248 ft | 463 kts | 70° |
| 2026-05-06 19:04 | 41.46575 | 11.02441 | 20427 ft | 452 kts | 70° |
| 2026-05-06 19:05 | 41.47686 | 11.06320 | 19651 ft | 441 kts | 71° |
| 2026-05-06 19:05 | 41.48761 | 11.10093 | 18914 ft | 431 kts | 71° |
| 2026-05-06 19:05 | 41.49804 | 11.13796 | 18207 ft | 421 kts | 71° |
| 2026-05-06 19:05 | 41.50820 | 11.17418 | 17424 ft | 411 kts | 71° |
| 2026-05-06 19:06 | 41.51811 | 11.20954 | 16678 ft | 401 kts | 71° |
| 2026-05-06 19:06 | 41.52746 | 11.24292 | 15984 ft | 392 kts | 71° |
| 2026-05-06 19:06 | 41.53709 | 11.27733 | 15252 ft | 385 kts | 71° |
| 2026-05-06 19:06 | 41.54639 | 11.31058 | 14510 ft | 378 kts | 72° |
| 2026-05-06 19:07 | 41.55550 | 11.34319 | 13812 ft | 372 kts | 72° |
| 2026-05-06 19:07 | 41.56445 | 11.37530 | 13034 ft | 366 kts | 71° |
| 2026-05-06 19:07 | 41.57325 | 11.40692 | 12287 ft | 360 kts | 71° |
| 2026-05-06 19:07 | 41.58192 | 11.43804 | 11568 ft | 354 kts | 71° |
| 2026-05-06 19:08 | 41.59057 | 11.46873 | 10872 ft | 349 kts | 71° |
| 2026-05-06 19:08 | 41.59913 | 11.49895 | 10206 ft | 344 kts | 70° |
| 2026-05-06 19:08 | 41.60743 | 11.52829 | 9808 ft | 339 kts | 70° |
| 2026-05-06 19:08 | 41.61561 | 11.55720 | 9704 ft | 325 kts | 70° |
| 2026-05-06 19:09 | 41.62337 | 11.58466 | 9699 ft | 307 kts | 71° |
| 2026-05-06 19:09 | 41.63071 | 11.61069 | 9691 ft | 291 kts | 71° |
| 2026-05-06 19:09 | 41.63782 | 11.63603 | 9691 ft | 294 kts | 71° |
| 2026-05-06 19:09 | 41.64507 | 11.66198 | 9692 ft | 299 kts | 71° |
| 2026-05-06 19:10 | 41.65235 | 11.68796 | 9693 ft | 297 kts | 71° |
| 2026-05-06 19:10 | 41.65949 | 11.71345 | 9694 ft | 297 kts | 71° |
| 2026-05-06 19:10 | 41.66675 | 11.73940 | 9698 ft | 298 kts | 71° |
| 2026-05-06 19:10 | 41.67400 | 11.76533 | 9696 ft | 297 kts | 71° |
| 2026-05-06 19:11 | 41.68126 | 11.79132 | 9695 ft | 297 kts | 71° |
| 2026-05-06 19:11 | 41.68850 | 11.81725 | 9694 ft | 297 kts | 71° |
| 2026-05-06 19:11 | 41.69514 | 11.84106 | 9698 ft | 298 kts | 71° |
| 2026-05-06 19:11 | 41.70236 | 11.86700 | 9701 ft | 297 kts | 72° |
| 2026-05-06 19:12 | 41.71136 | 11.89192 | 9698 ft | 300 kts | 54° |
| 2026-05-06 19:12 | 41.72711 | 11.91029 | 9701 ft | 303 kts | 28° |
| 2026-05-06 19:12 | 41.74731 | 11.91825 | 9703 ft | 303 kts | 2° |
| 2026-05-06 19:12 | 41.76812 | 11.91752 | 9695 ft | 303 kts | 354° |
| 2026-05-06 19:13 | 41.78917 | 11.91501 | 9702 ft | 303 kts | 353° |
| 2026-05-06 19:13 | 41.81014 | 11.91243 | 9698 ft | 302 kts | 353° |
| 2026-05-06 19:13 | 41.83103 | 11.91021 | 9695 ft | 299 kts | 354° |
| 2026-05-06 19:13 | 41.85187 | 11.90831 | 9695 ft | 301 kts | 355° |
| 2026-05-06 19:14 | 41.87281 | 11.90660 | 9694 ft | 302 kts | 355° |
| 2026-05-06 19:14 | 41.89384 | 11.90498 | 9700 ft | 302 kts | 355° |
| 2026-05-06 19:14 | 41.91484 | 11.90340 | 9697 ft | 302 kts | 355° |
| 2026-05-06 19:14 | 41.93551 | 11.90184 | 9696 ft | 301 kts | 355° |
| 2026-05-06 19:15 | 41.95645 | 11.90026 | 9694 ft | 301 kts | 355° |
| 2026-05-06 19:15 | 41.97756 | 11.89865 | 9509 ft | 304 kts | 355° |
| 2026-05-06 19:15 | 41.99861 | 11.89704 | 9254 ft | 299 kts | 355° |
| 2026-05-06 19:15 | 42.01890 | 11.89550 | 9207 ft | 295 kts | 355° |
| 2026-05-06 19:16 | 42.03988 | 11.89387 | 9210 ft | 300 kts | 355° |
| 2026-05-06 19:16 | 42.06040 | 11.89229 | 9212 ft | 299 kts | 355° |
| 2026-05-06 19:16 | 42.08110 | 11.88997 | 9212 ft | 297 kts | 348° |
| 2026-05-06 19:16 | 42.10103 | 11.88310 | 9212 ft | 295 kts | 339° |
| 2026-05-06 19:17 | 42.12063 | 11.87452 | 9215 ft | 295 kts | 340° |
| 2026-05-06 19:17 | 42.14020 | 11.86611 | 9210 ft | 295 kts | 340° |
| 2026-05-06 19:17 | 42.15956 | 11.85785 | 9218 ft | 295 kts | 340° |
| 2026-05-06 19:17 | 42.17907 | 11.84951 | 9228 ft | 294 kts | 340° |
| 2026-05-06 19:18 | 42.19866 | 11.84114 | 9225 ft | 294 kts | 340° |
| 2026-05-06 19:18 | 42.21821 | 11.83279 | 9228 ft | 295 kts | 339° |
| 2026-05-06 19:18 | 42.23776 | 11.82442 | 9228 ft | 295 kts | 340° |
| 2026-05-06 19:18 | 42.25780 | 11.81976 | 9223 ft | 293 kts | 1° |
| 2026-05-06 19:19 | 42.27710 | 11.82668 | 9216 ft | 281 kts | 28° |
| 2026-05-06 19:19 | 42.29155 | 11.84332 | 9109 ft | 268 kts | 55° |
| 2026-05-06 19:19 | 42.29924 | 11.86511 | 9102 ft | 251 kts | 79° |
| 2026-05-06 19:19 | 42.30032 | 11.88844 | 9105 ft | 253 kts | 102° |
| 2026-05-06 19:20 | 42.29527 | 11.91078 | 9110 ft | 247 kts | 116° |
| 2026-05-06 19:20 | 42.28877 | 11.93240 | 9096 ft | 248 kts | 115° |
| 2026-05-06 19:20 | 42.28234 | 11.95409 | 9058 ft | 247 kts | 117° |
| 2026-05-06 19:20 | 42.27237 | 11.97207 | 8973 ft | 238 kts | 148° |
| 2026-05-06 19:21 | 42.25764 | 11.98109 | 8842 ft | 232 kts | 166° |
| 2026-05-06 19:21 | 42.24227 | 11.98753 | 8476 ft | 236 kts | 166° |
| 2026-05-06 19:21 | 42.22641 | 11.99409 | 7948 ft | 241 kts | 166° |
| 2026-05-06 19:21 | 42.21014 | 12.00087 | 7415 ft | 245 kts | 166° |
| 2026-05-06 19:22 | 42.19390 | 12.00774 | 6926 ft | 243 kts | 165° |
| 2026-05-06 19:22 | 42.17791 | 12.01458 | 6443 ft | 239 kts | 165° |
| 2026-05-06 19:22 | 42.16219 | 12.02133 | 5913 ft | 235 kts | 165° |
| 2026-05-06 19:22 | 42.14676 | 12.02793 | 5443 ft | 229 kts | 165° |
| 2026-05-06 19:23 | 42.13181 | 12.03432 | 5078 ft | 221 kts | 165° |
| 2026-05-06 19:23 | 42.11814 | 12.04273 | 4714 ft | 218 kts | 149° |
| 2026-05-06 19:23 | 42.10697 | 12.05628 | 4323 ft | 215 kts | 134° |
| 2026-05-06 19:23 | 42.09689 | 12.07152 | 3948 ft | 218 kts | 136° |
| 2026-05-06 19:24 | 42.08689 | 12.08630 | 3571 ft | 212 kts | 136° |
| 2026-05-06 19:24 | 42.07701 | 12.10074 | 3211 ft | 206 kts | 136° |
| 2026-05-06 19:24 | 42.06745 | 12.11467 | 2946 ft | 198 kts | 136° |
| 2026-05-06 19:24 | 42.05830 | 12.12802 | 2690 ft | 190 kts | 135° |
| 2026-05-06 19:25 | 42.04972 | 12.14058 | 2554 ft | 176 kts | 135° |
| 2026-05-06 19:25 | 42.04137 | 12.15281 | 2478 ft | 180 kts | 135° |
| 2026-05-06 19:25 | 42.03295 | 12.16514 | 2471 ft | 178 kts | 135° |
| 2026-05-06 19:25 | 42.02454 | 12.17744 | 2469 ft | 179 kts | 135° |
| 2026-05-06 19:26 | 42.01552 | 12.18883 | 2468 ft | 176 kts | 148° |
| 2026-05-06 19:26 | 42.00434 | 12.19529 | 2476 ft | 176 kts | 165° |
| 2026-05-06 19:26 | 41.99256 | 12.19991 | 2473 ft | 177 kts | 164° |
| 2026-05-06 19:26 | 41.98098 | 12.20467 | 2474 ft | 175 kts | 164° |
| 2026-05-06 19:27 | 41.96932 | 12.20955 | 2474 ft | 176 kts | 164° |
| 2026-05-06 19:27 | 41.95764 | 12.21469 | 2353 ft | 176 kts | 163° |
| 2026-05-06 19:27 | 41.94615 | 12.21956 | 2102 ft | 168 kts | 164° |
| 2026-05-06 19:27 | 41.93548 | 12.22405 | 1887 ft | 156 kts | 163° |
| 2026-05-06 19:28 | 41.92570 | 12.22816 | 1688 ft | 138 kts | 163° |
| 2026-05-06 19:28 | 41.91710 | 12.23176 | 1503 ft | 121 kts | 164° |
| 2026-05-06 19:28 | 41.90900 | 12.23513 | 1408 ft | 124 kts | 163° |
| 2026-05-06 19:28 | 41.90027 | 12.23889 | 1351 ft | 137 kts | 162° |
| 2026-05-06 19:29 | 41.89176 | 12.24270 | 1200 ft | 127 kts | 162° |
| 2026-05-06 19:29 | 41.88315 | 12.24600 | 925 ft | 129 kts | 164° |
| 2026-05-06 19:29 | 41.87470 | 12.24915 | 622 ft | 120 kts | 161° |
| 2026-05-06 19:29 | 41.86716 | 12.25254 | 467 ft | 115 kts | 160° |
| 2026-05-06 19:30 | 41.85915 | 12.25604 | 350 ft | 124 kts | 163° |
| 2026-05-06 19:30 | 41.85091 | 12.25941 | 146 ft | 124 kts | 161° |
| 2026-05-06 19:30 | 41.84286 | 12.26277 | 24 ft | 119 kts | 156° |
| 2026-05-06 19:30 | 41.83634 | 12.26559 | 17 ft | 70 kts | 162° |
| 2026-05-06 19:31 | 41.83353 | 12.26655 | 14 ft | 20 kts | 173° |
| 2026-05-06 19:31 | 41.83236 | 12.26658 | 10 ft | 13 kts | 184° |
| 2026-05-06 19:31 | 41.83045 | 12.26607 | 10 ft | 14 kts | 190° |
| 2026-05-06 19:32 | 41.82943 | 12.26579 | 10 ft | 16 kts | 192° |
| 2026-05-06 19:32 | 41.82827 | 12.26571 | 12 ft | 17 kts | 171° |
| 2026-05-06 19:32 | 41.82721 | 12.26559 | 11 ft | 16 kts | 234° |
| 2026-05-06 19:32 | 41.82637 | 12.26511 | 10 ft | 15 kts | 166° |
| 2026-05-06 19:33 | 41.82531 | 12.26558 | 9 ft | 17 kts | 165° |
| 2026-05-06 19:33 | 41.82414 | 12.26607 | 9 ft | 19 kts | 162° |
| 2026-05-06 19:33 | 41.82286 | 12.26659 | 9 ft | 20 kts | 162° |
| 2026-05-06 19:33 | 41.82149 | 12.26717 | 9 ft | 21 kts | 163° |
| 2026-05-06 19:34 | 41.82003 | 12.26779 | 9 ft | 23 kts | 162° |
| 2026-05-06 19:34 | 41.81849 | 12.26840 | 9 ft | 24 kts | 165° |
| 2026-05-06 19:34 | 41.81691 | 12.26907 | 10 ft | 24 kts | 162° |
| 2026-05-06 19:34 | 41.81526 | 12.26977 | 10 ft | 25 kts | 162° |
| 2026-05-06 19:35 | 41.81358 | 12.27048 | 10 ft | 26 kts | 162° |
| 2026-05-06 19:35 | 41.81188 | 12.27118 | 11 ft | 26 kts | 163° |
| 2026-05-06 19:35 | 41.81030 | 12.27184 | 12 ft | 18 kts | 162° |
| 2026-05-06 19:35 | 41.80905 | 12.27222 | 12 ft | 16 kts | 181° |
| 2026-05-06 19:36 | 41.80795 | 12.27175 | 13 ft | 17 kts | 224° |
| 2026-05-06 19:36 | 41.80743 | 12.27026 | 14 ft | 19 kts | 248° |
| 2026-05-06 19:36 | 41.80695 | 12.26852 | 13 ft | 21 kts | 250° |
| 2026-05-06 19:36 | 41.80642 | 12.26662 | 16 ft | 22 kts | 251° |
| 2026-05-06 19:37 | 41.80586 | 12.26459 | 17 ft | 23 kts | 249° |
| 2026-05-06 19:37 | 41.80527 | 12.26246 | 16 ft | 25 kts | 251° |
| 2026-05-06 19:37 | 41.80465 | 12.26017 | 15 ft | 27 kts | 249° |
| 2026-05-06 19:37 | 41.80421 | 12.25855 | 15 ft | 28 kts | 250° |
| 2026-05-06 19:38 | 41.80341 | 12.25567 | 17 ft | 16 kts | 250° |
| 2026-05-06 19:38 | 41.80276 | 12.25444 | 15 ft | 17 kts | 205° |
| 2026-05-06 19:38 | 41.80153 | 12.25384 | 14 ft | 20 kts | 199° |
| 2026-05-06 19:38 | 41.80052 | 12.25338 | 14 ft | 14 kts | 184° |
| 2026-05-06 19:39 | 41.79991 | 12.25434 | 14 ft | 15 kts | 111° |
| 2026-05-06 19:39 | 41.79933 | 12.25474 | 14 ft | 9 kts | 195° |
| 2026-05-06 19:39 | 41.79867 | 12.25438 | 15 ft | 12 kts | 203° |
| 2026-05-06 19:39 | 41.79852 | 12.25381 | 14 ft | 5 kts | 290° |
| 2026-05-06 19:40 | 41.79862 | 12.25353 | 14 ft | 1 kts | 295° |
| 2026-05-06 19:40 | 41.79863 | 12.25350 | 14 ft | 0 kts | 295° |